セブ の空港の天気 - METARとTAF

マクタン・セブ国際空港 ( RPVM / CEB ) - フィリピン セブ / ラプ=ラプ
飛行場実況気象(Metar)
観測時間09/30 14:00 PHT (09/30 06:00 UTC)
風向・風速北東 3m/s
視程10km以上
天気現象
少しの雲 雲底高度 550m
全天の8割程度の雲 雲底高度 7620m
気温32℃
湿度59%
気圧1006hPa
METARRPVM 300600Z 04006KT 9999 FEW018CB BKN250 32/23 Q1006 RMK A2971 CB S/NW
過去の天気等 Google飛行場航空写真 Wunderground天気予報

過去48時間のMETAR

飛行場予報(TAF)
発表時間: 9/30 13:00 PHT (9/30 05:00 UTC)
予報対象時間: 30日14時 PHT ~ 1日20時 PHT
風向・風速西南西 3m/s
視程10km以上
少しの雲 雲底高度 610m
全天の8割程度の雲 雲底高度 9140m
30日14時 PHT ~ 30日20時 PHT に一時的に
風向・風速不定 2m/s
天気現象弱いしゅう雨
少しの積乱雲 雲底高度 550m
少しの雲 雲底高度 610m
全天の8割程度の雲 雲底高度 9140m
30日20時 PHT ~ 1日2時 PHT に一時的に
風向・風速西南西 2m/s
TAF RPVM 300500Z 3006/0112 24005KT 9999 FEW020 BKN300
TEMPO 3006/3012 VRB03KT -SHRA FEW018CB FEW020 BKN300
TEMPO 3012/3018 24004KT